sensor_id;sensor_type;location;lat;lon;timestamp;P1;durP1;ratioP1;P2;durP2;ratioP2
50281;SDS011;36176;51.506;10.272;2023-08-31T00:01:05;4.93;;;4.43;;
50281;SDS011;36176;51.506;10.272;2023-08-31T00:03:32;4.40;;;4.00;;
50281;SDS011;36176;51.506;10.272;2023-08-31T00:06:01;5.10;;;4.63;;
50281;SDS011;36176;51.506;10.272;2023-08-31T00:08:29;5.17;;;4.67;;
50281;SDS011;36176;51.506;10.272;2023-08-31T00:10:57;4.60;;;4.20;;
50281;SDS011;36176;51.506;10.272;2023-08-31T00:13:25;5.60;;;5.10;;
50281;SDS011;36176;51.506;10.272;2023-08-31T00:15:53;4.57;;;4.17;;
50281;SDS011;36176;51.506;10.272;2023-08-31T00:18:22;5.93;;;5.07;;
50281;SDS011;36176;51.506;10.272;2023-08-31T00:20:49;5.50;;;5.00;;
50281;SDS011;36176;51.506;10.272;2023-08-31T00:23:16;4.13;;;3.77;;
50281;SDS011;36176;51.506;10.272;2023-08-31T00:25:43;7.33;;;5.90;;
50281;SDS011;36176;51.506;10.272;2023-08-31T00:28:10;4.97;;;4.57;;
50281;SDS011;36176;51.506;10.272;2023-08-31T00:30:37;7.00;;;6.30;;
50281;SDS011;36176;51.506;10.272;2023-08-31T00:33:04;5.73;;;5.07;;
50281;SDS011;36176;51.506;10.272;2023-08-31T00:35:32;5.80;;;5.10;;
50281;SDS011;36176;51.506;10.272;2023-08-31T00:38:00;6.27;;;5.67;;
50281;SDS011;36176;51.506;10.272;2023-08-31T00:40:27;5.03;;;4.40;;
50281;SDS011;36176;51.506;10.272;2023-08-31T00:42:54;7.73;;;6.77;;
50281;SDS011;36176;51.506;10.272;2023-08-31T00:45:23;5.70;;;5.23;;
50281;SDS011;36176;51.506;10.272;2023-08-31T00:47:50;5.77;;;5.27;;
50281;SDS011;36176;51.506;10.272;2023-08-31T00:50:18;9.27;;;7.43;;
50281;SDS011;36176;51.506;10.272;2023-08-31T00:52:46;5.97;;;5.37;;
50281;SDS011;36176;51.506;10.272;2023-08-31T00:55:13;7.13;;;6.03;;
50281;SDS011;36176;51.506;10.272;2023-08-31T00:57:40;6.77;;;6.17;;
50281;SDS011;36176;51.506;10.272;2023-08-31T01:00:07;7.93;;;6.23;;
50281;SDS011;36176;51.506;10.272;2023-08-31T01:05:33;8.40;;;7.43;;
50281;SDS011;36176;51.506;10.272;2023-08-31T01:08:33;7.97;;;6.90;;
50281;SDS011;36176;51.506;10.272;2023-08-31T01:16:45;8.93;;;8.13;;
50281;SDS011;36176;51.506;10.272;2023-08-31T01:19:27;9.90;;;8.83;;
50281;SDS011;36176;51.506;10.272;2023-08-31T01:22:05;8.97;;;8.17;;
50281;SDS011;36176;51.506;10.272;2023-08-31T01:24:36;11.03;;;8.87;;
50281;SDS011;36176;51.506;10.272;2023-08-31T01:27:05;8.90;;;8.10;;
50281;SDS011;36176;51.506;10.272;2023-08-31T01:29:32;8.47;;;7.67;;
50281;SDS011;36176;51.506;10.272;2023-08-31T01:31:59;8.30;;;7.50;;
50281;SDS011;36176;51.506;10.272;2023-08-31T01:34:26;8.83;;;7.93;;
50281;SDS011;36176;51.506;10.272;2023-08-31T01:36:56;8.33;;;7.53;;
50281;SDS011;36176;51.506;10.272;2023-08-31T01:39:29;8.57;;;7.67;;
50281;SDS011;36176;51.506;10.272;2023-08-31T01:42:04;9.27;;;8.37;;
50281;SDS011;36176;51.506;10.272;2023-08-31T01:44:34;9.63;;;8.50;;
50281;SDS011;36176;51.506;10.272;2023-08-31T01:47:03;11.47;;;10.27;;
50281;SDS011;36176;51.506;10.272;2023-08-31T01:49:38;10.13;;;8.40;;
50281;SDS011;36176;51.506;10.272;2023-08-31T01:52:06;10.73;;;9.60;;
50281;SDS011;36176;51.506;10.272;2023-08-31T01:54:33;8.20;;;7.50;;
50281;SDS011;36176;51.506;10.272;2023-08-31T01:57:01;12.33;;;10.60;;
50281;SDS011;36176;51.506;10.272;2023-08-31T01:59:28;9.60;;;8.67;;
50281;SDS011;36176;51.506;10.272;2023-08-31T02:01:55;10.33;;;8.53;;
50281;SDS011;36176;51.506;10.272;2023-08-31T02:04:22;9.20;;;8.40;;
50281;SDS011;36176;51.506;10.272;2023-08-31T02:06:49;12.23;;;9.73;;
50281;SDS011;36176;51.506;10.272;2023-08-31T02:09:16;9.57;;;8.63;;
50281;SDS011;36176;51.506;10.272;2023-08-31T02:11:43;9.43;;;8.57;;
50281;SDS011;36176;51.506;10.272;2023-08-31T02:14:12;11.47;;;10.10;;
50281;SDS011;36176;51.506;10.272;2023-08-31T02:16:39;15.33;;;12.27;;
50281;SDS011;36176;51.506;10.272;2023-08-31T02:19:06;13.40;;;11.70;;
50281;SDS011;36176;51.506;10.272;2023-08-31T02:21:33;7.53;;;6.80;;
50281;SDS011;36176;51.506;10.272;2023-08-31T02:24:00;10.57;;;9.47;;
50281;SDS011;36176;51.506;10.272;2023-08-31T02:26:27;12.13;;;10.13;;
50281;SDS011;36176;51.506;10.272;2023-08-31T02:28:55;9.13;;;7.93;;
50281;SDS011;36176;51.506;10.272;2023-08-31T02:31:22;13.63;;;11.40;;
50281;SDS011;36176;51.506;10.272;2023-08-31T02:33:49;9.70;;;8.80;;
50281;SDS011;36176;51.506;10.272;2023-08-31T02:36:16;9.33;;;8.47;;
50281;SDS011;36176;51.506;10.272;2023-08-31T02:38:43;11.47;;;10.27;;
50281;SDS011;36176;51.506;10.272;2023-08-31T02:41:10;10.93;;;9.83;;
50281;SDS011;36176;51.506;10.272;2023-08-31T02:43:38;10.97;;;9.87;;
50281;SDS011;36176;51.506;10.272;2023-08-31T02:46:05;10.10;;;9.20;;
50281;SDS011;36176;51.506;10.272;2023-08-31T02:48:32;15.27;;;12.00;;
50281;SDS011;36176;51.506;10.272;2023-08-31T02:51:00;8.97;;;8.17;;
50281;SDS011;36176;51.506;10.272;2023-08-31T02:53:27;12.10;;;8.90;;
50281;SDS011;36176;51.506;10.272;2023-08-31T02:55:54;13.73;;;10.90;;
50281;SDS011;36176;51.506;10.272;2023-08-31T02:58:24;10.20;;;9.20;;
50281;SDS011;36176;51.506;10.272;2023-08-31T03:00:51;9.47;;;8.57;;
50281;SDS011;36176;51.506;10.272;2023-08-31T03:03:18;10.23;;;9.23;;
50281;SDS011;36176;51.506;10.272;2023-08-31T03:05:45;8.90;;;8.10;;
50281;SDS011;36176;51.506;10.272;2023-08-31T03:08:12;9.63;;;8.63;;
50281;SDS011;36176;51.506;10.272;2023-08-31T03:10:40;10.93;;;9.90;;
50281;SDS011;36176;51.506;10.272;2023-08-31T03:13:07;12.70;;;11.27;;
50281;SDS011;36176;51.506;10.272;2023-08-31T03:15:36;11.73;;;10.63;;
50281;SDS011;36176;51.506;10.272;2023-08-31T03:18:03;14.17;;;12.37;;
50281;SDS011;36176;51.506;10.272;2023-08-31T03:20:30;14.20;;;12.80;;
50281;SDS011;36176;51.506;10.272;2023-08-31T03:22:57;13.87;;;12.47;;
50281;SDS011;36176;51.506;10.272;2023-08-31T03:25:26;11.63;;;10.60;;
50281;SDS011;36176;51.506;10.272;2023-08-31T03:27:55;10.23;;;9.33;;
50281;SDS011;36176;51.506;10.272;2023-08-31T03:30:22;15.23;;;13.63;;
50281;SDS011;36176;51.506;10.272;2023-08-31T03:32:49;12.03;;;10.83;;
50281;SDS011;36176;51.506;10.272;2023-08-31T03:35:17;14.43;;;12.93;;
50281;SDS011;36176;51.506;10.272;2023-08-31T03:37:46;10.10;;;9.20;;
50281;SDS011;36176;51.506;10.272;2023-08-31T03:40:14;13.53;;;12.13;;
50281;SDS011;36176;51.506;10.272;2023-08-31T03:42:41;11.93;;;10.83;;
50281;SDS011;36176;51.506;10.272;2023-08-31T03:45:08;11.87;;;10.80;;
50281;SDS011;36176;51.506;10.272;2023-08-31T03:47:35;17.50;;;15.73;;
50281;SDS011;36176;51.506;10.272;2023-08-31T03:50:03;15.20;;;13.40;;
50281;SDS011;36176;51.506;10.272;2023-08-31T03:52:31;12.67;;;11.37;;
50281;SDS011;36176;51.506;10.272;2023-08-31T03:54:58;14.47;;;12.37;;
50281;SDS011;36176;51.506;10.272;2023-08-31T03:59:59;12.03;;;10.17;;
50281;SDS011;36176;51.506;10.272;2023-08-31T04:05:17;12.57;;;11.30;;
50281;SDS011;36176;51.506;10.272;2023-08-31T04:10:14;19.90;;;16.40;;
50281;SDS011;36176;51.506;10.272;2023-08-31T04:12:41;10.00;;;9.10;;
50281;SDS011;36176;51.506;10.272;2023-08-31T04:15:08;13.87;;;12.53;;
50281;SDS011;36176;51.506;10.272;2023-08-31T04:17:36;11.23;;;10.20;;
50281;SDS011;36176;51.506;10.272;2023-08-31T04:20:03;14.00;;;12.40;;
50281;SDS011;36176;51.506;10.272;2023-08-31T04:22:31;11.03;;;9.93;;
50281;SDS011;36176;51.506;10.272;2023-08-31T04:24:58;12.07;;;10.33;;
50281;SDS011;36176;51.506;10.272;2023-08-31T04:27:25;11.67;;;10.10;;
50281;SDS011;36176;51.506;10.272;2023-08-31T04:29:52;12.83;;;11.53;;
50281;SDS011;36176;51.506;10.272;2023-08-31T04:32:19;12.33;;;10.23;;
50281;SDS011;36176;51.506;10.272;2023-08-31T04:34:46;10.60;;;9.70;;
50281;SDS011;36176;51.506;10.272;2023-08-31T04:37:13;10.77;;;9.77;;
50281;SDS011;36176;51.506;10.272;2023-08-31T04:39:40;9.23;;;8.33;;
50281;SDS011;36176;51.506;10.272;2023-08-31T04:42:07;11.27;;;10.07;;
50281;SDS011;36176;51.506;10.272;2023-08-31T04:44:35;13.67;;;12.33;;
50281;SDS011;36176;51.506;10.272;2023-08-31T04:47:02;10.27;;;9.27;;
50281;SDS011;36176;51.506;10.272;2023-08-31T04:49:29;11.97;;;10.67;;
50281;SDS011;36176;51.506;10.272;2023-08-31T04:51:57;10.47;;;9.47;;
50281;SDS011;36176;51.506;10.272;2023-08-31T04:54:24;12.77;;;10.83;;
50281;SDS011;36176;51.506;10.272;2023-08-31T04:56:51;10.70;;;9.67;;
50281;SDS011;36176;51.506;10.272;2023-08-31T04:59:19;10.93;;;9.90;;
50281;SDS011;36176;51.506;10.272;2023-08-31T05:01:46;10.93;;;9.93;;
50281;SDS011;36176;51.506;10.272;2023-08-31T05:04:13;13.83;;;12.27;;
50281;SDS011;36176;51.506;10.272;2023-08-31T05:06:40;14.70;;;13.20;;
50281;SDS011;36176;51.506;10.272;2023-08-31T05:09:08;14.10;;;12.07;;
50281;SDS011;36176;51.506;10.272;2023-08-31T05:11:35;12.40;;;11.20;;
50281;SDS011;36176;51.506;10.272;2023-08-31T05:14:02;20.23;;;16.93;;
50281;SDS011;36176;51.506;10.272;2023-08-31T05:16:30;22.07;;;17.30;;
50281;SDS011;36176;51.506;10.272;2023-08-31T05:18:57;13.60;;;12.30;;
50281;SDS011;36176;51.506;10.272;2023-08-31T05:21:24;14.67;;;13.27;;
50281;SDS011;36176;51.506;10.272;2023-08-31T05:23:51;15.90;;;13.80;;
50281;SDS011;36176;51.506;10.272;2023-08-31T05:26:18;14.13;;;12.73;;
50281;SDS011;36176;51.506;10.272;2023-08-31T05:28:45;14.33;;;12.93;;
50281;SDS011;36176;51.506;10.272;2023-08-31T05:31:12;15.43;;;13.93;;
50281;SDS011;36176;51.506;10.272;2023-08-31T05:33:39;17.10;;;15.30;;
50281;SDS011;36176;51.506;10.272;2023-08-31T05:36:06;15.47;;;13.97;;
50281;SDS011;36176;51.506;10.272;2023-08-31T05:38:34;13.10;;;11.97;;
50281;SDS011;36176;51.506;10.272;2023-08-31T05:41:05;16.70;;;15.00;;
50281;SDS011;36176;51.506;10.272;2023-08-31T05:43:33;14.73;;;13.27;;
50281;SDS011;36176;51.506;10.272;2023-08-31T05:46:01;17.23;;;15.43;;
50281;SDS011;36176;51.506;10.272;2023-08-31T05:48:29;23.17;;;19.00;;
50281;SDS011;36176;51.506;10.272;2023-08-31T05:50:57;14.47;;;13.17;;
50281;SDS011;36176;51.506;10.272;2023-08-31T05:53:24;15.80;;;14.30;;
50281;SDS011;36176;51.506;10.272;2023-08-31T05:55:51;15.23;;;13.80;;
50281;SDS011;36176;51.506;10.272;2023-08-31T05:58:18;15.70;;;14.27;;
50281;SDS011;36176;51.506;10.272;2023-08-31T06:00:45;16.93;;;15.10;;
50281;SDS011;36176;51.506;10.272;2023-08-31T06:03:12;13.83;;;12.43;;
50281;SDS011;36176;51.506;10.272;2023-08-31T06:05:39;14.80;;;13.40;;
50281;SDS011;36176;51.506;10.272;2023-08-31T06:08:07;14.60;;;12.93;;
50281;SDS011;36176;51.506;10.272;2023-08-31T06:10:34;12.20;;;11.10;;
50281;SDS011;36176;51.506;10.272;2023-08-31T06:13:02;15.30;;;12.67;;
50281;SDS011;36176;51.506;10.272;2023-08-31T06:15:29;13.47;;;12.07;;
50281;SDS011;36176;51.506;10.272;2023-08-31T06:17:56;12.83;;;11.53;;
50281;SDS011;36176;51.506;10.272;2023-08-31T06:20:25;14.93;;;12.50;;
50281;SDS011;36176;51.506;10.272;2023-08-31T06:22:52;14.30;;;10.80;;
50281;SDS011;36176;51.506;10.272;2023-08-31T06:25:19;13.60;;;10.23;;
50281;SDS011;36176;51.506;10.272;2023-08-31T06:27:46;10.27;;;9.27;;
50281;SDS011;36176;51.506;10.272;2023-08-31T06:30:14;11.83;;;9.67;;
50281;SDS011;36176;51.506;10.272;2023-08-31T06:32:44;12.18;;;9.38;;
50281;SDS011;36176;51.506;10.272;2023-08-31T06:35:12;11.05;;;8.90;;
50281;SDS011;36176;51.506;10.272;2023-08-31T06:37:40;8.95;;;7.88;;
50281;SDS011;36176;51.506;10.272;2023-08-31T06:40:09;11.10;;;8.13;;
50281;SDS011;36176;51.506;10.272;2023-08-31T06:42:37;10.52;;;9.27;;
50281;SDS011;36176;51.506;10.272;2023-08-31T06:45:05;11.70;;;9.70;;
50281;SDS011;36176;51.506;10.272;2023-08-31T06:47:34;8.82;;;8.02;;
50281;SDS011;36176;51.506;10.272;2023-08-31T06:50:01;8.90;;;8.05;;
50281;SDS011;36176;51.506;10.272;2023-08-31T06:52:28;8.80;;;8.00;;
50281;SDS011;36176;51.506;10.272;2023-08-31T06:54:58;8.55;;;7.75;;
50281;SDS011;36176;51.506;10.272;2023-08-31T06:57:26;10.02;;;8.70;;
50281;SDS011;36176;51.506;10.272;2023-08-31T06:59:54;7.97;;;7.28;;
50281;SDS011;36176;51.506;10.272;2023-08-31T07:02:21;9.07;;;8.18;;
50281;SDS011;36176;51.506;10.272;2023-08-31T07:04:48;8.57;;;7.53;;
50281;SDS011;36176;51.506;10.272;2023-08-31T07:07:15;8.35;;;7.65;;
50281;SDS011;36176;51.506;10.272;2023-08-31T07:09:43;7.95;;;7.25;;
50281;SDS011;36176;51.506;10.272;2023-08-31T07:12:11;8.98;;;8.18;;
50281;SDS011;36176;51.506;10.272;2023-08-31T07:14:38;8.02;;;7.30;;
50281;SDS011;36176;51.506;10.272;2023-08-31T07:17:05;8.40;;;7.60;;
50281;SDS011;36176;51.506;10.272;2023-08-31T07:19:35;7.97;;;7.15;;
50281;SDS011;36176;51.506;10.272;2023-08-31T07:22:03;8.98;;;8.00;;
50281;SDS011;36176;51.506;10.272;2023-08-31T07:24:30;7.40;;;6.80;;
50281;SDS011;36176;51.506;10.272;2023-08-31T07:26:57;7.30;;;6.70;;
50281;SDS011;36176;51.506;10.272;2023-08-31T07:29:24;8.90;;;8.10;;
50281;SDS011;36176;51.506;10.272;2023-08-31T07:31:52;7.43;;;6.80;;
50281;SDS011;36176;51.506;10.272;2023-08-31T07:34:19;7.80;;;7.07;;
50281;SDS011;36176;51.506;10.272;2023-08-31T07:36:46;8.10;;;7.40;;
50281;SDS011;36176;51.506;10.272;2023-08-31T07:39:14;7.68;;;6.97;;
50281;SDS011;36176;51.506;10.272;2023-08-31T07:41:41;8.07;;;7.38;;
50281;SDS011;36176;51.506;10.272;2023-08-31T07:44:08;8.50;;;7.70;;
50281;SDS011;36176;51.506;10.272;2023-08-31T07:46:35;8.38;;;7.60;;
50281;SDS011;36176;51.506;10.272;2023-08-31T07:49:03;7.65;;;6.85;;
50281;SDS011;36176;51.506;10.272;2023-08-31T07:51:30;7.47;;;6.78;;
50281;SDS011;36176;51.506;10.272;2023-08-31T07:53:59;6.85;;;6.28;;
50281;SDS011;36176;51.506;10.272;2023-08-31T07:56:28;8.02;;;7.22;;
50281;SDS011;36176;51.506;10.272;2023-08-31T07:58:55;7.05;;;6.45;;
50281;SDS011;36176;51.506;10.272;2023-08-31T08:01:22;8.18;;;7.38;;
50281;SDS011;36176;51.506;10.272;2023-08-31T08:03:49;6.68;;;6.07;;
50281;SDS011;36176;51.506;10.272;2023-08-31T08:06:16;6.47;;;5.90;;
50281;SDS011;36176;51.506;10.272;2023-08-31T08:08:43;5.72;;;5.18;;
50281;SDS011;36176;51.506;10.272;2023-08-31T08:11:11;5.30;;;4.80;;
50281;SDS011;36176;51.506;10.272;2023-08-31T08:13:38;5.18;;;4.70;;
50281;SDS011;36176;51.506;10.272;2023-08-31T08:16:05;5.38;;;4.38;;
50281;SDS011;36176;51.506;10.272;2023-08-31T08:18:32;4.80;;;4.15;;
50281;SDS011;36176;51.506;10.272;2023-08-31T08:21:00;4.70;;;4.30;;
50281;SDS011;36176;51.506;10.272;2023-08-31T08:23:27;5.25;;;4.30;;
50281;SDS011;36176;51.506;10.272;2023-08-31T08:25:54;5.25;;;4.78;;
50281;SDS011;36176;51.506;10.272;2023-08-31T08:28:21;5.22;;;4.72;;
50281;SDS011;36176;51.506;10.272;2023-08-31T08:30:48;4.80;;;4.30;;
50281;SDS011;36176;51.506;10.272;2023-08-31T08:33:16;5.85;;;4.80;;
50281;SDS011;36176;51.506;10.272;2023-08-31T08:35:43;4.50;;;4.10;;
50281;SDS011;36176;51.506;10.272;2023-08-31T08:38:11;4.30;;;3.90;;
50281;SDS011;36176;51.506;10.272;2023-08-31T08:40:38;4.97;;;4.30;;
50281;SDS011;36176;51.506;10.272;2023-08-31T08:43:06;5.10;;;4.47;;
50281;SDS011;36176;51.506;10.272;2023-08-31T08:45:37;5.13;;;3.78;;
50281;SDS011;36176;51.506;10.272;2023-08-31T08:48:05;4.32;;;3.90;;
50281;SDS011;36176;51.506;10.272;2023-08-31T08:50:33;3.92;;;3.58;;
50281;SDS011;36176;51.506;10.272;2023-08-31T08:53:02;5.00;;;3.63;;
50281;SDS011;36176;51.506;10.272;2023-08-31T08:55:30;5.10;;;3.85;;
50281;SDS011;36176;51.506;10.272;2023-08-31T08:57:57;4.47;;;4.07;;
50281;SDS011;36176;51.506;10.272;2023-08-31T09:00:25;4.25;;;3.65;;
50281;SDS011;36176;51.506;10.272;2023-08-31T09:02:53;5.10;;;3.58;;
50281;SDS011;36176;51.506;10.272;2023-08-31T09:05:20;3.85;;;3.42;;
50281;SDS011;36176;51.506;10.272;2023-08-31T09:10:44;3.20;;;2.90;;
50281;SDS011;36176;51.506;10.272;2023-08-31T09:13:12;2.80;;;2.60;;
50281;SDS011;36176;51.506;10.272;2023-08-31T09:15:45;3.22;;;2.92;;
50281;SDS011;36176;51.506;10.272;2023-08-31T09:20:50;3.20;;;2.90;;
50281;SDS011;36176;51.506;10.272;2023-08-31T09:23:17;4.78;;;2.92;;
50281;SDS011;36176;51.506;10.272;2023-08-31T09:25:49;3.40;;;3.10;;
50281;SDS011;36176;51.506;10.272;2023-08-31T09:28:19;4.00;;;3.60;;
50281;SDS011;36176;51.506;10.272;2023-08-31T09:30:48;3.72;;;3.42;;
50281;SDS011;36176;51.506;10.272;2023-08-31T09:33:17;3.92;;;3.20;;
50281;SDS011;36176;51.506;10.272;2023-08-31T09:35:52;6.78;;;3.10;;
50281;SDS011;36176;51.506;10.272;2023-08-31T09:38:20;7.57;;;3.60;;
50281;SDS011;36176;51.506;10.272;2023-08-31T09:40:48;3.67;;;3.20;;
50281;SDS011;36176;51.506;10.272;2023-08-31T09:43:24;3.80;;;3.30;;
50281;SDS011;36176;51.506;10.272;2023-08-31T09:45:53;5.50;;;3.10;;
50281;SDS011;36176;51.506;10.272;2023-08-31T09:48:20;5.65;;;2.85;;
50281;SDS011;36176;51.506;10.272;2023-08-31T09:50:49;4.25;;;3.00;;
50281;SDS011;36176;51.506;10.272;2023-08-31T09:53:20;3.88;;;2.75;;
50281;SDS011;36176;51.506;10.272;2023-08-31T09:55:47;4.97;;;2.78;;
50281;SDS011;36176;51.506;10.272;2023-08-31T09:58:16;3.03;;;2.72;;
50281;SDS011;36176;51.506;10.272;2023-08-31T10:00:45;3.10;;;2.45;;
50281;SDS011;36176;51.506;10.272;2023-08-31T10:03:15;3.10;;;2.47;;
50281;SDS011;36176;51.506;10.272;2023-08-31T10:05:46;2.90;;;2.60;;
50281;SDS011;36176;51.506;10.272;2023-08-31T10:08:15;2.60;;;2.40;;
50281;SDS011;36176;51.506;10.272;2023-08-31T10:10:42;2.85;;;2.55;;
50281;SDS011;36176;51.506;10.272;2023-08-31T10:13:12;2.67;;;2.20;;
50281;SDS011;36176;51.506;10.272;2023-08-31T10:15:41;2.50;;;2.17;;
50281;SDS011;36176;51.506;10.272;2023-08-31T10:18:10;3.25;;;2.30;;
50281;SDS011;36176;51.506;10.272;2023-08-31T10:20:39;2.55;;;1.95;;
50281;SDS011;36176;51.506;10.272;2023-08-31T10:23:09;2.25;;;2.05;;
50281;SDS011;36176;51.506;10.272;2023-08-31T10:28:20;3.47;;;2.70;;
50281;SDS011;36176;51.506;10.272;2023-08-31T10:31:01;3.45;;;2.40;;
50281;SDS011;36176;51.506;10.272;2023-08-31T10:36:33;3.97;;;2.83;;
50281;SDS011;36176;51.506;10.272;2023-08-31T10:39:06;4.38;;;3.05;;
50281;SDS011;36176;51.506;10.272;2023-08-31T10:41:39;3.03;;;2.80;;
50281;SDS011;36176;51.506;10.272;2023-08-31T10:44:19;3.75;;;2.97;;
50281;SDS011;36176;51.506;10.272;2023-08-31T10:46:49;3.40;;;2.58;;
50281;SDS011;36176;51.506;10.272;2023-08-31T10:49:18;2.95;;;2.53;;
50281;SDS011;36176;51.506;10.272;2023-08-31T10:51:53;3.22;;;2.55;;
50281;SDS011;36176;51.506;10.272;2023-08-31T10:54:25;2.80;;;2.50;;
50281;SDS011;36176;51.506;10.272;2023-08-31T10:59:27;3.40;;;2.63;;
50281;SDS011;36176;51.506;10.272;2023-08-31T11:02:27;3.83;;;2.50;;
50281;SDS011;36176;51.506;10.272;2023-08-31T11:05:06;2.85;;;2.33;;
50281;SDS011;36176;51.506;10.272;2023-08-31T11:07:50;3.05;;;2.20;;
50281;SDS011;36176;51.506;10.272;2023-08-31T11:12:51;3.22;;;2.08;;
50281;SDS011;36176;51.506;10.272;2023-08-31T11:15:20;2.72;;;2.30;;
50281;SDS011;36176;51.506;10.272;2023-08-31T11:17:52;2.67;;;2.22;;
50281;SDS011;36176;51.506;10.272;2023-08-31T11:20:21;3.60;;;2.10;;
50281;SDS011;36176;51.506;10.272;2023-08-31T11:22:50;2.70;;;2.10;;
50281;SDS011;36176;51.506;10.272;2023-08-31T11:25:17;2.38;;;2.17;;
50281;SDS011;36176;51.506;10.272;2023-08-31T11:27:57;2.88;;;2.15;;
50281;SDS011;36176;51.506;10.272;2023-08-31T11:30:31;2.30;;;2.00;;
50281;SDS011;36176;51.506;10.272;2023-08-31T11:33:03;3.65;;;2.10;;
50281;SDS011;36176;51.506;10.272;2023-08-31T11:35:35;3.13;;;1.98;;
50281;SDS011;36176;51.506;10.272;2023-08-31T11:38:04;4.00;;;2.33;;
50281;SDS011;36176;51.506;10.272;2023-08-31T11:40:32;2.50;;;2.30;;
50281;SDS011;36176;51.506;10.272;2023-08-31T11:43:00;3.10;;;2.33;;
50281;SDS011;36176;51.506;10.272;2023-08-31T11:45:27;3.65;;;2.67;;
50281;SDS011;36176;51.506;10.272;2023-08-31T11:47:55;3.03;;;2.47;;
50281;SDS011;36176;51.506;10.272;2023-08-31T11:50:23;3.60;;;2.80;;
50281;SDS011;36176;51.506;10.272;2023-08-31T11:52:51;3.30;;;3.00;;
50281;SDS011;36176;51.506;10.272;2023-08-31T11:55:18;5.47;;;2.97;;
50281;SDS011;36176;51.506;10.272;2023-08-31T11:57:52;3.20;;;2.57;;
50281;SDS011;36176;51.506;10.272;2023-08-31T12:00:21;3.27;;;2.70;;
50281;SDS011;36176;51.506;10.272;2023-08-31T12:02:58;3.00;;;2.63;;
50281;SDS011;36176;51.506;10.272;2023-08-31T12:05:26;3.70;;;2.63;;
50281;SDS011;36176;51.506;10.272;2023-08-31T12:07:54;2.93;;;2.57;;
50281;SDS011;36176;51.506;10.272;2023-08-31T12:10:24;2.80;;;2.50;;
50281;SDS011;36176;51.506;10.272;2023-08-31T12:12:51;2.60;;;2.40;;
50281;SDS011;36176;51.506;10.272;2023-08-31T12:15:18;4.70;;;2.47;;
50281;SDS011;36176;51.506;10.272;2023-08-31T12:17:47;3.23;;;2.30;;
50281;SDS011;36176;51.506;10.272;2023-08-31T12:20:16;3.70;;;2.40;;
50281;SDS011;36176;51.506;10.272;2023-08-31T12:22:43;2.40;;;2.20;;
50281;SDS011;36176;51.506;10.272;2023-08-31T12:25:10;2.50;;;2.20;;
50281;SDS011;36176;51.506;10.272;2023-08-31T12:27:46;2.17;;;2.00;;
50281;SDS011;36176;51.506;10.272;2023-08-31T12:30:15;1.83;;;1.73;;
50281;SDS011;36176;51.506;10.272;2023-08-31T12:32:43;2.35;;;2.15;;
50281;SDS011;36176;51.506;10.272;2023-08-31T12:35:10;2.40;;;1.98;;
50281;SDS011;36176;51.506;10.272;2023-08-31T12:37:37;2.03;;;1.85;;
50281;SDS011;36176;51.506;10.272;2023-08-31T12:40:04;2.20;;;2.00;;
50281;SDS011;36176;51.506;10.272;2023-08-31T12:42:32;3.35;;;2.03;;
50281;SDS011;36176;51.506;10.272;2023-08-31T12:45:00;2.33;;;2.13;;
50281;SDS011;36176;51.506;10.272;2023-08-31T12:47:27;3.60;;;2.00;;
50281;SDS011;36176;51.506;10.272;2023-08-31T12:49:55;2.70;;;2.08;;
50281;SDS011;36176;51.506;10.272;2023-08-31T12:52:22;3.75;;;2.20;;
50281;SDS011;36176;51.506;10.272;2023-08-31T12:54:49;2.70;;;2.50;;
50281;SDS011;36176;51.506;10.272;2023-08-31T12:57:16;2.85;;;2.50;;
50281;SDS011;36176;51.506;10.272;2023-08-31T12:59:43;3.45;;;2.50;;
50281;SDS011;36176;51.506;10.272;2023-08-31T13:02:12;2.58;;;2.38;;
50281;SDS011;36176;51.506;10.272;2023-08-31T13:04:39;2.63;;;2.25;;
50281;SDS011;36176;51.506;10.272;2023-08-31T13:07:07;2.70;;;2.33;;
50281;SDS011;36176;51.506;10.272;2023-08-31T13:09:34;2.60;;;2.40;;
50281;SDS011;36176;51.506;10.272;2023-08-31T13:12:02;2.70;;;2.50;;
50281;SDS011;36176;51.506;10.272;2023-08-31T13:14:29;2.63;;;2.42;;
50281;SDS011;36176;51.506;10.272;2023-08-31T13:16:56;2.60;;;2.30;;
50281;SDS011;36176;51.506;10.272;2023-08-31T13:19:23;3.42;;;2.25;;
50281;SDS011;36176;51.506;10.272;2023-08-31T13:21:52;3.25;;;2.65;;
50281;SDS011;36176;51.506;10.272;2023-08-31T13:24:19;2.70;;;2.50;;
50281;SDS011;36176;51.506;10.272;2023-08-31T13:26:47;2.95;;;2.67;;
50281;SDS011;36176;51.506;10.272;2023-08-31T13:29:15;3.10;;;2.80;;
50281;SDS011;36176;51.506;10.272;2023-08-31T13:31:42;3.63;;;2.70;;
50281;SDS011;36176;51.506;10.272;2023-08-31T13:34:09;3.25;;;2.75;;
50281;SDS011;36176;51.506;10.272;2023-08-31T13:36:36;3.22;;;2.90;;
50281;SDS011;36176;51.506;10.272;2023-08-31T13:39:03;3.10;;;2.80;;
50281;SDS011;36176;51.506;10.272;2023-08-31T13:41:30;3.35;;;3.05;;
50281;SDS011;36176;51.506;10.272;2023-08-31T13:43:58;5.07;;;4.20;;
50281;SDS011;36176;51.506;10.272;2023-08-31T13:46:25;4.32;;;3.92;;
50281;SDS011;36176;51.506;10.272;2023-08-31T13:48:53;3.80;;;3.50;;
50281;SDS011;36176;51.506;10.272;2023-08-31T13:51:20;3.50;;;3.20;;
50281;SDS011;36176;51.506;10.272;2023-08-31T13:53:46;3.55;;;3.25;;
50281;SDS011;36176;51.506;10.272;2023-08-31T13:56:13;4.97;;;3.45;;
50281;SDS011;36176;51.506;10.272;2023-08-31T13:58:40;5.77;;;3.60;;
50281;SDS011;36176;51.506;10.272;2023-08-31T14:01:08;3.63;;;3.33;;
50281;SDS011;36176;51.506;10.272;2023-08-31T14:03:35;3.70;;;3.40;;
50281;SDS011;36176;51.506;10.272;2023-08-31T14:06:03;4.53;;;3.50;;
50281;SDS011;36176;51.506;10.272;2023-08-31T14:08:32;3.50;;;3.20;;
50281;SDS011;36176;51.506;10.272;2023-08-31T14:11:00;3.50;;;3.10;;
50281;SDS011;36176;51.506;10.272;2023-08-31T14:13:27;5.33;;;2.87;;
50281;SDS011;36176;51.506;10.272;2023-08-31T14:15:54;5.07;;;3.10;;
50281;SDS011;36176;51.506;10.272;2023-08-31T14:18:21;3.90;;;3.50;;
50281;SDS011;36176;51.506;10.272;2023-08-31T14:20:48;5.27;;;4.10;;
50281;SDS011;36176;51.506;10.272;2023-08-31T14:23:15;4.10;;;3.70;;
50281;SDS011;36176;51.506;10.272;2023-08-31T14:25:42;4.90;;;3.53;;
50281;SDS011;36176;51.506;10.272;2023-08-31T14:28:09;3.35;;;3.05;;
50281;SDS011;36176;51.506;10.272;2023-08-31T14:30:36;3.60;;;3.30;;
50281;SDS011;36176;51.506;10.272;2023-08-31T14:33:04;3.95;;;3.55;;
50281;SDS011;36176;51.506;10.272;2023-08-31T14:35:32;4.20;;;3.30;;
50281;SDS011;36176;51.506;10.272;2023-08-31T14:38:03;4.35;;;3.30;;
50281;SDS011;36176;51.506;10.272;2023-08-31T14:40:31;4.00;;;3.22;;
50281;SDS011;36176;51.506;10.272;2023-08-31T14:42:59;3.72;;;3.00;;
50281;SDS011;36176;51.506;10.272;2023-08-31T14:45:26;3.00;;;2.70;;
50281;SDS011;36176;51.506;10.272;2023-08-31T14:47:54;3.65;;;3.05;;
50281;SDS011;36176;51.506;10.272;2023-08-31T14:50:21;3.53;;;2.90;;
50281;SDS011;36176;51.506;10.272;2023-08-31T14:52:48;3.75;;;2.80;;
50281;SDS011;36176;51.506;10.272;2023-08-31T14:55:16;3.45;;;2.88;;
50281;SDS011;36176;51.506;10.272;2023-08-31T14:57:42;3.78;;;3.30;;
50281;SDS011;36176;51.506;10.272;2023-08-31T15:00:10;4.07;;;3.58;;
50281;SDS011;36176;51.506;10.272;2023-08-31T15:02:38;4.35;;;3.90;;
50281;SDS011;36176;51.506;10.272;2023-08-31T15:05:05;4.55;;;3.40;;
50281;SDS011;36176;51.506;10.272;2023-08-31T15:07:32;4.65;;;3.28;;